Time;durP1;ratioP1;P1;durP2;ratioP2;P2;SDS_P1;SDS_P2;PMS_P1;PMS_P2;Temp;Humidity;BMP_temperature;BMP_pressure;BME280_temperature;BME280_humidity;BME280_pressure;Samples;Min_cycle;Max_cycle;Signal;HPM_P1;HPM_P2
2022/01/15 00:00:35;;;;;;;14.27;6.15;;;1.80;90.70;;;;;;5016107;28;20052;-82
2022/01/15 00:03:01;;;;;;;14.77;7.10;;;1.70;90.70;;;;;;5007907;28;20084;-83
2022/01/15 00:05:26;;;;;;;13.32;6.40;;;1.70;90.70;;;;;;5032939;28;20578;-83
2022/01/15 00:07:52;;;;;;;14.98;7.13;;;1.80;90.80;;;;;;5022470;28;20119;-83
2022/01/15 00:10:20;;;;;;;19.65;6.95;;;1.80;90.80;;;;;;5013588;28;20036;-84
2022/01/15 00:12:46;;;;;;;14.68;6.50;;;1.80;90.80;;;;;;5033635;28;20025;-83
2022/01/15 00:15:17;;;;;;;18.33;7.53;;;1.80;90.80;;;;;;5013616;28;20085;-83
2022/01/15 00:17:46;;;;;;;13.60;6.60;;;1.80;90.80;;;;;;5001379;28;20118;-83
2022/01/15 00:20:16;;;;;;;15.75;6.65;;;1.80;90.80;;;;;;5040560;28;20037;-84
2022/01/15 00:22:42;;;;;;;15.60;6.43;;;1.80;90.80;;;;;;4997594;28;20053;-82
2022/01/15 00:25:08;;;;;;;15.45;6.75;;;1.80;90.80;;;;;;5007322;28;20041;-82
2022/01/15 00:27:33;;;;;;;17.58;7.40;;;1.70;90.80;;;;;;5008819;28;20859;-83
2022/01/15 00:29:59;;;;;;;14.77;6.60;;;1.70;90.80;;;;;;5036478;28;20025;-82
2022/01/15 00:32:24;;;;;;;12.57;6.10;;;1.70;90.80;;;;;;4995893;28;20041;-80
2022/01/15 00:34:50;;;;;;;20.48;6.60;;;1.70;90.80;;;;;;5009599;28;20057;-82
2022/01/15 00:37:16;;;;;;;15.95;6.45;;;1.70;90.90;;;;;;5028104;28;20041;-81
2022/01/15 00:39:41;;;;;;;12.45;5.78;;;1.70;90.90;;;;;;5018918;28;20043;-83
2022/01/15 00:42:09;;;;;;;19.13;6.43;;;1.70;90.90;;;;;;5026562;28;20371;-83
2022/01/15 00:44:36;;;;;;;16.85;7.00;;;1.70;90.90;;;;;;5052471;28;20029;-83
2022/01/15 00:47:01;;;;;;;15.77;6.60;;;1.70;90.90;;;;;;5042937;28;20036;-83
2022/01/15 00:49:27;;;;;;;15.15;6.32;;;1.70;90.90;;;;;;5029817;28;20483;-83
2022/01/15 00:51:52;;;;;;;14.80;5.60;;;1.70;90.90;;;;;;5028365;28;20044;-81
2022/01/15 00:54:18;;;;;;;12.48;5.90;;;1.70;90.90;;;;;;5052479;28;20092;-82
2022/01/15 00:56:44;;;;;;;15.15;6.53;;;1.70;90.90;;;;;;5021984;28;20045;-84
2022/01/15 00:59:09;;;;;;;16.27;6.75;;;1.70;91.00;;;;;;5020326;28;20044;-84
2022/01/15 01:01:35;;;;;;;14.65;6.35;;;1.70;91.00;;;;;;5030962;28;20055;-82
2022/01/15 01:04:00;;;;;;;14.95;7.20;;;1.80;91.00;;;;;;5015222;28;20041;-83
2022/01/15 01:06:26;;;;;;;16.58;7.28;;;1.80;91.00;;;;;;5030868;28;20025;-82
2022/01/15 01:08:51;;;;;;;20.67;9.38;;;1.80;91.00;;;;;;5002765;28;20116;-82
2022/01/15 01:11:23;;;;;;;21.58;8.60;;;1.80;91.00;;;;;;5033168;28;20653;-82
2022/01/15 01:24:29;;;;;;;14.90;6.40;;;1.80;91.00;;;;;;5025530;28;20032;-82
2022/01/15 01:27:05;;;;;;;20.02;7.00;;;1.80;91.00;;;;;;5022761;28;20029;-83
2022/01/15 01:35:06;;;;;;;14.98;6.72;;;1.80;91.10;;;;;;5047907;28;20148;-83
2022/01/15 01:37:37;;;;;;;16.10;6.78;;;1.80;91.10;;;;;;5017903;28;20661;-82
2022/01/15 01:40:18;;;;;;;;;;;1.80;91.10;;;;;;5007634;28;20041;-81
2022/01/15 01:42:53;;;;;;;17.38;6.85;;;1.80;91.10;;;;;;5018116;28;19909;-82
2022/01/15 01:45:19;;;;;;;17.20;6.97;;;1.80;91.00;;;;;;5031733;28;20116;-83
2022/01/15 01:47:44;;;;;;;16.23;6.53;;;1.80;91.10;;;;;;5031237;28;20513;-83
2022/01/15 01:50:24;;;;;;;15.10;7.00;;;1.80;91.10;;;;;;5029343;28;20029;-82
2022/01/15 01:52:51;;;;;;;14.48;6.78;;;1.80;91.20;;;;;;5029215;28;20048;-83
2022/01/15 01:55:18;;;;;;;15.43;6.53;;;1.80;91.20;;;;;;5004756;28;20042;-83
2022/01/15 01:57:44;;;;;;;17.15;8.05;;;1.90;91.20;;;;;;5011848;28;20446;-82
2022/01/15 02:00:12;;;;;;;19.85;8.32;;;1.90;91.20;;;;;;5008860;28;20045;-82
2022/01/15 02:02:37;;;;;;;17.50;7.57;;;1.90;91.20;;;;;;4986198;28;20121;-82
2022/01/15 02:05:03;;;;;;;18.83;7.45;;;1.90;91.20;;;;;;4995389;28;20037;-83
2022/01/15 02:07:29;;;;;;;17.60;7.32;;;1.80;91.20;;;;;;5029063;28;20880;-84
2022/01/15 02:09:55;;;;;;;15.05;7.03;;;1.80;91.30;;;;;;5018503;28;20675;-83
2022/01/15 02:12:20;;;;;;;20.02;7.28;;;1.90;91.30;;;;;;5008063;28;20091;-82
2022/01/15 02:14:46;;;;;;;16.77;7.43;;;1.90;91.30;;;;;;5038235;28;20156;-83
2022/01/15 02:17:16;;;;;;;16.70;7.63;;;1.90;91.30;;;;;;5017214;28;20410;-83
2022/01/15 02:19:57;;;;;;;15.40;7.15;;;1.90;91.30;;;;;;5031098;28;20044;-82
2022/01/15 02:25:07;;;;;;;17.58;6.93;;;1.90;91.30;;;;;;5034633;28;20128;-82
2022/01/15 02:27:33;;;;;;;13.50;6.45;;;1.90;91.60;;;;;;5030645;28;20052;-84
2022/01/15 02:30:03;;;;;;;17.63;7.32;;;1.90;91.30;;;;;;5046565;28;20033;-83
2022/01/15 02:32:31;;;;;;;20.98;7.97;;;1.90;91.30;;;;;;5023769;28;20041;-82
2022/01/15 02:34:57;;;;;;;19.75;7.43;;;1.90;91.30;;;;;;4983552;28;20232;-83
2022/01/15 02:37:23;;;;;;;17.55;7.32;;;1.90;91.40;;;;;;5014530;28;20763;-81
2022/01/15 02:39:48;;;;;;;19.52;7.43;;;1.90;91.40;;;;;;5034765;28;20052;-80
2022/01/15 02:42:14;;;;;;;18.23;7.60;;;1.90;91.40;;;;;;4990399;28;20025;-82
2022/01/15 02:44:43;;;;;;;13.85;6.55;;;1.90;91.40;;;;;;5008871;28;20064;-82
2022/01/15 02:49:34;;;;;;;15.52;6.63;;;1.90;91.40;;;;;;5020466;28;20064;-82
2022/01/15 02:51:59;;;;;;;17.58;7.60;;;1.90;91.40;;;;;;4997055;28;20577;-81
2022/01/15 02:54:25;;;;;;;18.73;8.02;;;1.90;91.40;;;;;;4999223;28;20036;-81
2022/01/15 02:56:50;;;;;;;17.63;7.47;;;1.90;91.40;;;;;;5042923;28;20033;-81
2022/01/15 02:59:19;;;;;;;18.40;8.35;;;1.90;91.50;;;;;;5011718;28;20044;-82
2022/01/15 03:01:45;;;;;;;18.98;7.13;;;1.90;91.50;;;;;;5027510;28;20929;-81
2022/01/15 03:04:10;;;;;;;15.77;7.13;;;1.90;91.50;;;;;;5016450;28;20029;-82
2022/01/15 03:06:36;;;;;;;17.90;7.25;;;1.90;91.50;;;;;;5026996;28;20378;-81
2022/01/15 03:09:01;;;;;;;15.32;6.78;;;1.90;91.50;;;;;;5015793;28;21536;-83
2022/01/15 03:11:28;;;;;;;18.13;7.90;;;1.90;91.50;;;;;;4993735;28;20112;-82
2022/01/15 03:13:54;;;;;;;17.85;7.20;;;1.90;91.50;;;;;;5029082;28;20029;-82
2022/01/15 03:16:20;;;;;;;18.00;8.45;;;1.90;91.50;;;;;;5005509;28;20101;-82
2022/01/15 03:18:46;;;;;;;16.83;7.32;;;1.90;91.50;;;;;;5007761;28;20661;-82
2022/01/15 03:21:11;;;;;;;16.73;6.93;;;1.90;91.50;;;;;;5027517;28;20032;-82
2022/01/15 03:23:37;;;;;;;17.38;8.32;;;1.90;91.60;;;;;;5024636;28;20033;-82
2022/01/15 03:26:03;;;;;;;20.20;8.73;;;1.90;91.50;;;;;;4995844;28;20767;-81
2022/01/15 03:28:29;;;;;;;21.63;8.90;;;2.00;91.60;;;;;;5029566;28;20755;-81
2022/01/15 03:30:54;;;;;;;17.45;8.15;;;2.00;91.60;;;;;;5036052;28;20033;-82
2022/01/15 03:33:20;;;;;;;19.13;7.68;;;1.90;91.50;;;;;;5024975;28;20120;-81
2022/01/15 03:35:45;;;;;;;19.00;7.68;;;2.00;91.60;;;;;;5032345;28;20499;-81
2022/01/15 03:38:11;;;;;;;17.45;7.93;;;1.90;91.50;;;;;;5004673;28;20083;-82
2022/01/15 03:40:40;;;;;;;18.88;7.80;;;1.90;91.60;;;;;;5001616;28;20100;-82
2022/01/15 03:43:06;;;;;;;18.83;8.00;;;1.90;91.60;;;;;;5009044;28;20507;-81
2022/01/15 03:45:32;;;;;;;17.00;7.60;;;2.00;91.60;;;;;;5010200;28;20045;-83
2022/01/15 03:47:57;;;;;;;17.25;7.40;;;2.00;91.60;;;;;;5004460;28;20399;-82
2022/01/15 03:50:24;;;;;;;18.88;8.13;;;2.00;91.60;;;;;;4990196;28;20049;-81
2022/01/15 03:52:49;;;;;;;16.55;8.00;;;2.00;91.70;;;;;;4992003;28;20450;-81
2022/01/15 03:55:15;;;;;;;21.30;8.05;;;2.00;91.70;;;;;;4992777;28;20495;-80
2022/01/15 03:57:41;;;;;;;21.95;9.57;;;2.00;91.70;;;;;;5020424;28;20048;-83
2022/01/15 04:00:26;;;;;;;17.67;8.10;;;2.00;91.70;;;;;;5009768;28;20715;-81
2022/01/15 04:02:52;;;;;;;18.08;7.70;;;2.00;91.70;;;;;;5000482;28;20041;-81
2022/01/15 04:05:17;;;;;;;17.88;8.02;;;2.00;91.70;;;;;;5028422;28;20030;-80
2022/01/15 04:07:43;;;;;;;17.98;7.90;;;1.90;91.60;;;;;;5014040;28;20040;-83
2022/01/15 04:10:10;;;;;;;17.48;8.38;;;1.90;91.60;;;;;;4987210;28;20120;-83
2022/01/15 04:12:36;;;;;;;17.40;7.75;;;2.00;91.70;;;;;;5029301;28;20526;-81
2022/01/15 04:15:03;;;;;;;16.30;7.40;;;1.90;91.70;;;;;;5031343;28;20029;-79
2022/01/15 04:17:28;;;;;;;16.88;8.10;;;2.00;91.70;;;;;;5002964;28;20045;-81
2022/01/15 04:19:54;;;;;;;19.02;8.63;;;2.00;91.70;;;;;;5013227;28;20044;-80
2022/01/15 04:22:19;;;;;;;17.42;7.30;;;2.00;91.70;;;;;;5005654;28;20126;-83
2022/01/15 04:24:45;;;;;;;18.02;7.95;;;2.00;91.70;;;;;;5044716;28;20505;-80
2022/01/15 04:27:10;;;;;;;20.17;9.27;;;2.00;91.70;;;;;;5037795;28;20283;-81
2022/01/15 04:29:36;;;;;;;16.48;8.05;;;2.00;91.70;;;;;;5048007;28;20107;-82
2022/01/15 04:32:02;;;;;;;20.83;8.48;;;2.00;91.70;;;;;;4997572;28;20735;-81
2022/01/15 04:34:28;;;;;;;19.00;8.15;;;2.00;91.70;;;;;;5005744;28;20434;-83
2022/01/15 04:37:11;;;;;;;18.48;8.65;;;2.00;91.70;;;;;;5019565;28;20422;-82
2022/01/15 04:39:36;;;;;;;20.20;9.30;;;2.00;91.70;;;;;;5025359;28;20040;-80
2022/01/15 04:42:02;;;;;;;17.63;8.73;;;2.10;91.70;;;;;;5020379;28;20033;-83
2022/01/15 04:44:28;;;;;;;18.88;8.45;;;2.00;91.70;;;;;;5031007;28;20033;-82
2022/01/15 04:46:53;;;;;;;21.83;8.65;;;2.10;91.80;;;;;;4996969;28;20095;-80
2022/01/15 04:49:19;;;;;;;21.02;8.68;;;2.00;91.70;;;;;;5048037;28;20029;-81
2022/01/15 04:51:44;;;;;;;15.98;7.75;;;2.10;91.80;;;;;;5002621;28;20173;-82
2022/01/15 04:54:10;;;;;;;19.25;8.15;;;2.00;91.80;;;;;;5020310;28;20145;-81
2022/01/15 04:56:35;;;;;;;20.73;8.48;;;2.00;91.80;;;;;;5013089;28;20033;-81
2022/01/15 04:59:01;;;;;;;24.15;9.30;;;2.10;91.80;;;;;;5029873;28;20033;-81
2022/01/15 05:01:28;;;;;;;22.95;9.77;;;2.10;91.80;;;;;;4983584;28;20025;-82
2022/01/15 05:03:53;;;;;;;21.00;8.43;;;2.00;91.80;;;;;;4999129;28;20025;-82
2022/01/15 05:06:19;;;;;;;24.17;9.70;;;2.00;91.80;;;;;;5024003;28;20101;-82
2022/01/15 05:08:46;;;;;;;22.77;9.10;;;2.00;91.80;;;;;;5042139;28;20761;-82
2022/01/15 05:11:16;;;;;;;20.70;8.93;;;2.00;91.80;;;;;;5010682;28;20041;-81
2022/01/15 05:13:41;;;;;;;22.98;10.05;;;2.00;91.80;;;;;;5029825;28;20029;-82
2022/01/15 05:16:07;;;;;;;25.63;9.70;;;2.00;91.80;;;;;;5028285;28;20063;-82
2022/01/15 05:18:33;;;;;;;19.17;8.82;;;2.00;91.80;;;;;;5010172;28;20131;-81
2022/01/15 05:20:58;;;;;;;23.13;8.88;;;2.00;91.80;;;;;;4987080;28;20153;-81
2022/01/15 05:23:24;;;;;;;19.88;8.80;;;2.00;91.80;;;;;;5041352;28;20091;-81
2022/01/15 05:25:49;;;;;;;20.63;8.88;;;2.00;91.80;;;;;;4993487;28;20044;-81
2022/01/15 05:28:15;;;;;;;19.13;7.97;;;2.00;91.80;;;;;;5027844;28;20029;-81
2022/01/15 05:30:40;;;;;;;17.10;7.82;;;2.00;91.90;;;;;;4997707;28;20729;-80
2022/01/15 05:33:06;;;;;;;14.80;7.47;;;2.00;91.90;;;;;;5011121;28;20033;-81
2022/01/15 05:35:31;;;;;;;15.55;6.97;;;2.00;91.90;;;;;;5051138;28;20053;-81
2022/01/15 05:37:57;;;;;;;19.58;8.52;;;2.00;91.90;;;;;;5026652;28;20778;-81
2022/01/15 05:40:23;;;;;;;21.55;9.13;;;2.00;91.90;;;;;;4991365;28;20767;-81
2022/01/15 05:42:49;;;;;;;16.58;7.72;;;2.00;91.90;;;;;;5010096;28;20118;-81
2022/01/15 05:45:15;;;;;;;20.05;9.07;;;2.00;91.90;;;;;;5025152;28;20437;-81
2022/01/15 05:47:40;;;;;;;19.00;8.32;;;2.00;91.90;;;;;;5002961;28;20033;-81
2022/01/15 05:50:06;;;;;;;16.38;7.55;;;2.00;91.90;;;;;;5024461;28;20044;-81
2022/01/15 05:52:32;;;;;;;19.65;7.35;;;2.10;92.00;;;;;;5030209;28;20068;-82
2022/01/15 05:54:57;;;;;;;19.13;8.18;;;2.10;92.00;;;;;;5038281;28;20533;-83
2022/01/15 05:57:23;;;;;;;15.93;8.38;;;2.10;92.00;;;;;;5006784;28;20487;-84
2022/01/15 05:59:51;;;;;;;15.48;7.32;;;2.10;92.00;;;;;;5028681;28;20049;-83
2022/01/15 06:02:20;;;;;;;20.67;9.27;;;2.10;92.00;;;;;;5015203;28;20036;-82
2022/01/15 06:04:45;;;;;;;16.63;8.07;;;2.10;92.00;;;;;;5012163;28;20538;-82
2022/01/15 06:07:11;;;;;;;16.60;7.70;;;2.10;92.00;;;;;;5022994;28;20149;-82
2022/01/15 06:09:36;;;;;;;18.08;8.85;;;2.10;92.00;;;;;;5008528;28;20060;-83
2022/01/15 06:12:02;;;;;;;20.60;8.55;;;2.10;92.00;;;;;;5018574;28;20052;-80
2022/01/15 06:14:29;;;;;;;22.70;9.73;;;2.10;92.00;;;;;;5043065;28;20040;-80
2022/01/15 06:16:55;;;;;;;19.08;9.30;;;2.10;92.00;;;;;;5015738;28;20041;-80
2022/01/15 06:19:20;;;;;;;22.63;11.75;;;2.20;92.00;;;;;;5018593;28;20037;-81
2022/01/15 06:21:46;;;;;;;17.88;9.15;;;2.10;92.00;;;;;;5012520;28;20049;-82
2022/01/15 06:24:12;;;;;;;20.70;10.07;;;2.20;92.00;;;;;;4990145;28;20449;-82
2022/01/15 06:26:37;;;;;;;22.55;9.32;;;2.20;92.00;;;;;;5004537;28;20128;-82
2022/01/15 06:29:03;;;;;;;22.92;10.30;;;2.20;92.00;;;;;;5007573;28;20735;-84
2022/01/15 06:31:30;;;;;;;16.60;7.97;;;2.20;92.00;;;;;;5047592;28;20037;-82
2022/01/15 06:33:57;;;;;;;15.27;7.03;;;2.20;92.00;;;;;;5011351;28;20040;-81
2022/01/15 06:36:22;;;;;;;12.48;6.75;;;2.20;92.00;;;;;;5025044;28;20041;-82
2022/01/15 06:38:48;;;;;;;23.92;12.05;;;2.20;92.00;;;;;;5017078;28;20041;-82
2022/01/15 06:41:13;;;;;;;25.95;12.27;;;2.20;92.00;;;;;;4988483;28;20070;-82
2022/01/15 06:43:39;;;;;;;22.85;9.57;;;2.20;92.00;;;;;;5015389;28;20112;-82
2022/01/15 06:46:05;;;;;;;20.33;9.13;;;2.20;92.00;;;;;;5026055;28;20485;-82
2022/01/15 06:48:30;;;;;;;20.10;7.95;;;2.20;92.00;;;;;;5026359;28;20041;-81
2022/01/15 06:50:56;;;;;;;20.15;8.95;;;2.20;92.10;;;;;;5017192;28;20437;-82
2022/01/15 06:53:21;;;;;;;19.55;8.35;;;2.20;92.00;;;;;;5029762;28;20033;-81
2022/01/15 06:55:50;;;;;;;19.98;8.60;;;2.20;92.00;;;;;;5017918;28;20364;-81
2022/01/15 06:58:16;;;;;;;16.50;7.88;;;2.20;92.10;;;;;;5032635;28;20096;-82
2022/01/15 07:00:42;;;;;;;20.65;8.88;;;2.20;92.10;;;;;;5021191;28;20469;-82
2022/01/15 07:03:07;;;;;;;24.98;12.25;;;2.20;92.10;;;;;;5021959;28;20503;-82
2022/01/15 07:05:33;;;;;;;19.08;9.57;;;2.20;92.10;;;;;;5032490;28;20036;-82
2022/01/15 07:07:58;;;;;;;19.58;8.80;;;2.20;92.10;;;;;;4994498;28;20040;-82
2022/01/15 07:10:24;;;;;;;20.15;8.98;;;2.20;92.10;;;;;;5002418;28;20037;-82
2022/01/15 07:12:49;;;;;;;20.50;9.07;;;2.20;92.10;;;;;;5004125;28;20036;-81
2022/01/15 07:15:15;;;;;;;17.83;8.30;;;2.20;92.10;;;;;;5004071;28;20040;-82
2022/01/15 07:17:44;;;;;;;21.20;9.05;;;2.20;92.10;;;;;;5026156;28;20036;-82
2022/01/15 07:20:10;;;;;;;16.17;7.70;;;2.20;92.10;;;;;;5011697;28;20041;-81
2022/01/15 07:22:36;;;;;;;19.45;8.68;;;2.20;92.10;;;;;;4995112;28;20033;-82
2022/01/15 07:25:03;;;;;;;18.33;8.88;;;2.20;92.10;;;;;;5027589;28;20039;-82
2022/01/15 07:27:28;;;;;;;17.52;8.63;;;2.20;92.10;;;;;;5010632;28;20462;-82
2022/01/15 07:29:54;;;;;;;23.13;9.15;;;2.20;92.10;;;;;;4985486;28;20029;-81
2022/01/15 07:32:19;;;;;;;22.77;9.18;;;2.20;92.10;;;;;;5028503;28;20041;-82
2022/01/15 07:34:45;;;;;;;21.25;9.40;;;2.20;92.10;;;;;;5002974;28;20029;-82
2022/01/15 07:37:10;;;;;;;21.88;9.40;;;2.20;92.20;;;;;;5019476;28;20120;-82
2022/01/15 07:39:36;;;;;;;24.15;10.43;;;2.20;92.20;;;;;;5010600;28;20111;-82
2022/01/15 07:42:03;;;;;;;22.50;10.38;;;2.20;92.20;;;;;;4994580;28;20021;-82
2022/01/15 07:44:28;;;;;;;26.40;10.32;;;2.20;92.10;;;;;;4998488;28;20050;-81
2022/01/15 07:46:54;;;;;;;29.92;12.27;;;2.20;92.20;;;;;;5016473;28;20040;-81
2022/01/15 07:49:20;;;;;;;24.60;9.98;;;2.20;92.20;;;;;;5020271;28;20032;-83
2022/01/15 07:51:46;;;;;;;22.77;10.15;;;2.30;92.20;;;;;;5008513;28;20049;-81
2022/01/15 07:54:11;;;;;;;15.57;8.07;;;2.20;92.20;;;;;;5005884;28;20062;-82
2022/01/15 07:56:37;;;;;;;20.20;9.30;;;2.30;92.20;;;;;;4968374;28;20030;-81
2022/01/15 07:59:02;;;;;;;17.20;8.27;;;2.20;92.20;;;;;;5015604;28;20187;-81
2022/01/15 08:01:28;;;;;;;16.13;8.00;;;2.20;92.20;;;;;;5015423;28;20037;-81
2022/01/15 08:03:53;;;;;;;18.80;8.38;;;2.30;92.20;;;;;;4989596;28;20121;-80
2022/01/15 08:06:19;;;;;;;19.15;9.13;;;2.30;92.20;;;;;;4989508;28;20038;-82
2022/01/15 08:08:45;;;;;;;17.80;9.20;;;2.30;92.20;;;;;;4993083;28;20032;-82
2022/01/15 08:11:10;;;;;;;16.35;8.27;;;2.30;92.20;;;;;;4982592;28;20447;-82
2022/01/15 08:13:36;;;;;;;20.52;9.27;;;2.30;92.20;;;;;;5002209;28;20431;-83
2022/01/15 08:16:02;;;;;;;16.92;8.13;;;2.30;92.20;;;;;;4995896;28;20033;-82
2022/01/15 08:18:28;;;;;;;19.10;8.15;;;2.30;92.20;;;;;;5009817;28;20583;-82
2022/01/15 08:20:54;;;;;;;17.52;7.18;;;2.30;92.30;;;;;;5015833;28;20048;-82
2022/01/15 08:23:19;;;;;;;14.57;7.32;;;2.30;92.20;;;;;;5028148;28;20041;-82
2022/01/15 08:25:45;;;;;;;19.70;8.70;;;2.40;92.30;;;;;;4971693;28;20029;-81
2022/01/15 08:28:10;;;;;;;17.92;9.25;;;2.40;92.30;;;;;;5023216;28;20029;-81
2022/01/15 08:30:36;;;;;;;19.08;9.98;;;2.40;92.30;;;;;;5025884;28;20116;-82
2022/01/15 08:33:02;;;;;;;15.85;8.65;;;2.40;92.30;;;;;;5005342;28;20034;-82
2022/01/15 08:35:27;;;;;;;18.38;9.02;;;2.40;92.30;;;;;;4990099;28;20041;-81
2022/01/15 08:37:54;;;;;;;27.10;11.15;;;2.40;92.30;;;;;;4985663;28;20097;-81
2022/01/15 08:40:20;;;;;;;27.20;12.45;;;2.50;92.30;;;;;;5027146;28;20682;-81
2022/01/15 08:42:46;;;;;;;24.63;11.05;;;2.50;92.30;;;;;;5004725;28;20569;-82
2022/01/15 08:45:13;;;;;;;23.80;10.20;;;2.50;92.30;;;;;;4975346;28;20435;-82
2022/01/15 08:47:39;;;;;;;20.92;9.70;;;2.50;92.30;;;;;;5006464;28;20040;-82
2022/01/15 08:50:05;;;;;;;25.35;10.30;;;2.50;92.30;;;;;;5010060;28;20105;-81
2022/01/15 08:52:31;;;;;;;20.95;9.05;;;2.50;92.30;;;;;;4984569;28;20071;-81
2022/01/15 08:54:57;;;;;;;24.52;10.60;;;2.60;92.30;;;;;;5022719;28;20045;-82
2022/01/15 08:57:22;;;;;;;22.70;10.32;;;2.60;92.30;;;;;;5011757;28;20034;-81
2022/01/15 08:59:48;;;;;;;22.13;10.85;;;2.60;92.30;;;;;;4977494;28;20115;-81
2022/01/15 09:02:14;;;;;;;22.13;9.07;;;2.60;92.30;;;;;;4992016;28;20033;-81
2022/01/15 09:04:39;;;;;;;24.02;10.32;;;2.60;92.30;;;;;;5009468;28;20033;-81
2022/01/15 09:07:05;;;;;;;29.05;12.68;;;2.60;92.30;;;;;;5007155;28;20551;-81
2022/01/15 09:09:30;;;;;;;24.35;10.98;;;2.70;92.40;;;;;;4986813;28;20028;-82
2022/01/15 09:11:56;;;;;;;22.88;11.20;;;2.70;92.40;;;;;;4998789;28;20113;-81
2022/01/15 09:14:21;;;;;;;28.60;12.73;;;2.70;92.40;;;;;;4998768;28;20033;-81
2022/01/15 09:16:47;;;;;;;30.35;12.02;;;2.70;92.30;;;;;;5016702;28;20030;-81
2022/01/15 09:19:12;;;;;;;24.17;10.55;;;2.80;92.30;;;;;;5029459;28;21032;-81
2022/01/15 09:21:38;;;;;;;28.42;11.75;;;2.80;92.40;;;;;;4991609;28;20057;-81
2022/01/15 09:24:04;;;;;;;33.15;14.13;;;2.80;92.30;;;;;;4999321;28;20037;-81
2022/01/15 09:32:00;;;;;;;29.75;12.95;;;2.80;92.30;;;;;;5044401;28;20067;-82
2022/01/15 09:34:25;;;;;;;29.98;12.60;;;2.90;92.30;;;;;;4995787;28;20053;-82
2022/01/15 09:36:51;;;;;;;20.73;10.63;;;2.90;92.40;;;;;;5029373;28;20053;-82
2022/01/15 09:39:18;;;;;;;29.05;12.93;;;2.90;92.40;;;;;;5033121;28;20025;-81
2022/01/15 09:41:48;;;;;;;30.42;12.65;;;2.90;92.30;;;;;;5021299;28;20108;-82
2022/01/15 09:44:14;;;;;;;27.10;11.43;;;2.90;92.30;;;;;;5018720;28;20037;-82
2022/01/15 09:46:40;;;;;;;25.98;11.90;;;3.00;92.40;;;;;;5029107;28;20895;-82
2022/01/15 09:49:06;;;;;;;27.65;11.52;;;3.00;92.30;;;;;;5029893;28;20029;-81
2022/01/15 09:51:32;;;;;;;21.65;10.60;;;3.00;92.40;;;;;;4995643;28;20052;-81
2022/01/15 09:53:58;;;;;;;28.88;12.23;;;3.00;92.40;;;;;;5012690;28;20025;-82
2022/01/15 09:56:23;;;;;;;28.98;11.43;;;3.00;92.40;;;;;;4997792;28;20036;-80
2022/01/15 09:58:49;;;;;;;32.00;12.52;;;3.00;92.40;;;;;;4973349;28;20038;-80
2022/01/15 10:01:14;;;;;;;28.38;12.27;;;3.00;92.30;;;;;;5012965;28;20399;-79
2022/01/15 10:03:40;;;;;;;26.00;11.20;;;3.10;92.40;;;;;;5004342;28;20032;-80
2022/01/15 10:06:06;;;;;;;29.63;12.63;;;3.10;92.40;;;;;;5028391;28;20045;-79
2022/01/15 10:08:31;;;;;;;26.70;12.63;;;3.10;92.40;;;;;;5025665;28;20029;-80
2022/01/15 10:10:59;;;;;;;28.25;12.05;;;3.20;92.40;;;;;;5027861;28;20040;-81
2022/01/15 10:13:28;;;;;;;30.92;12.93;;;3.20;92.40;;;;;;5030381;28;20040;-80
2022/01/15 10:15:59;;;;;;;21.90;10.15;;;3.20;92.40;;;;;;4995782;28;20075;-80
2022/01/15 10:18:26;;;;;;;24.52;11.05;;;3.20;92.40;;;;;;5047388;28;20044;-80
2022/01/15 10:20:52;;;;;;;25.60;10.82;;;3.20;92.40;;;;;;5027305;28;20115;-81
2022/01/15 10:23:18;;;;;;;29.05;12.52;;;3.30;92.40;;;;;;5009011;28;20487;-80
2022/01/15 10:25:44;;;;;;;27.75;11.82;;;3.30;92.30;;;;;;5029161;28;20588;-80
2022/01/15 10:28:10;;;;;;;28.38;10.93;;;3.30;92.30;;;;;;5020732;28;20122;-80
2022/01/15 10:30:35;;;;;;;20.08;9.85;;;3.30;92.30;;;;;;5005976;28;20112;-80
2022/01/15 10:33:03;;;;;;;28.95;11.85;;;3.40;92.40;;;;;;5010016;28;20596;-81
2022/01/15 10:35:32;;;;;;;29.77;11.32;;;3.40;92.30;;;;;;4996861;28;20041;-82
2022/01/15 10:38:00;;;;;;;30.13;12.82;;;3.40;92.40;;;;;;5019616;28;20125;-82
2022/01/15 10:40:27;;;;;;;26.98;11.80;;;3.40;92.30;;;;;;5009727;28;20033;-81
2022/01/15 10:42:58;;;;;;;25.00;10.90;;;3.40;92.30;;;;;;4995162;28;20045;-84
2022/01/15 10:45:25;;;;;;;22.48;10.90;;;3.40;92.30;;;;;;4974828;28;20068;-81
2022/01/15 10:47:53;;;;;;;30.25;13.45;;;3.50;92.30;;;;;;5016991;28;20042;-81
2022/01/15 10:50:19;;;;;;;23.27;10.73;;;3.50;92.30;;;;;;4994105;28;20044;-81
2022/01/15 10:52:44;;;;;;;38.28;11.30;;;3.50;92.30;;;;;;5006100;28;20033;-80
2022/01/15 10:55:15;;;;;;;34.03;11.10;;;3.50;92.40;;;;;;4992774;28;20026;-80
2022/01/15 10:57:53;;;;;;;25.98;11.07;;;3.60;92.40;;;;;;4969522;28;20064;-80
2022/01/15 11:00:29;;;;;;;26.77;10.43;;;3.70;92.40;;;;;;5009666;28;20043;-80
2022/01/15 11:02:59;;;;;;;26.02;10.32;;;3.60;92.30;;;;;;4993321;28;20041;-80
2022/01/15 11:05:31;;;;;;;19.85;10.32;;;3.70;92.40;;;;;;5008196;28;20037;-81
2022/01/15 11:08:07;;;;;;;22.83;10.70;;;3.70;92.30;;;;;;4989408;28;20132;-80
2022/01/15 11:10:40;;;;;;;27.45;11.02;;;3.70;92.30;;;;;;5003543;28;20029;-80
2022/01/15 11:13:10;;;;;;;23.45;10.38;;;3.70;92.30;;;;;;4984355;28;20034;-80
2022/01/15 11:15:36;;;;;;;23.90;10.50;;;3.80;92.30;;;;;;5005663;28;21125;-80
2022/01/15 11:18:02;;;;;;;19.02;9.82;;;3.80;92.30;;;;;;4986190;28;20091;-80
2022/01/15 11:20:30;;;;;;;23.25;10.65;;;3.80;92.30;;;;;;4985564;28;20053;-80
2022/01/15 11:22:55;;;;;;;23.50;10.50;;;3.90;92.30;;;;;;4984357;28;20041;-80
2022/01/15 11:25:21;;;;;;;21.48;10.43;;;3.90;92.30;;;;;;5002915;28;20030;-80
2022/01/15 11:27:46;;;;;;;21.10;10.55;;;3.90;92.30;;;;;;5008472;28;20042;-80
2022/01/15 11:30:12;;;;;;;25.75;10.32;;;3.90;92.20;;;;;;4982451;28;20045;-80
2022/01/15 11:32:38;;;;;;;22.60;10.88;;;4.00;92.20;;;;;;5009086;28;20029;-80
2022/01/15 11:35:07;;;;;;;23.45;11.15;;;4.00;92.20;;;;;;4982526;28;20044;-81
2022/01/15 11:38:02;;;;;;;24.33;10.90;;;4.00;92.20;;;;;;5001351;28;20116;-80
2022/01/15 11:40:39;;;;;;;22.83;10.02;;;4.00;92.20;;;;;;5021223;28;20449;-81
2022/01/15 11:43:23;;;;;;;22.15;11.02;;;4.10;92.20;;;;;;5025108;28;20029;-80
2022/01/15 11:45:49;;;;;;;23.75;11.30;;;4.10;92.20;;;;;;5021153;28;20507;-80
2022/01/15 11:48:26;;;;;;;22.88;10.93;;;4.10;92.50;;;;;;5008771;28;20039;-80
2022/01/15 11:51:13;;;;;;;24.02;11.13;;;4.10;92.10;;;;;;4990851;28;20047;-81
2022/01/15 11:53:45;;;;;;;23.40;11.30;;;4.20;92.10;;;;;;5006238;28;20025;-81
2022/01/15 11:56:18;;;;;;;26.63;11.00;;;4.20;92.10;;;;;;5010177;28;20098;-81
2022/01/15 11:58:44;;;;;;;24.00;11.60;;;4.20;92.10;;;;;;5027527;28;20041;-80
2022/01/15 12:01:43;;;;;;;22.08;10.55;;;4.20;92.10;;;;;;4995611;28;20035;-80
2022/01/15 12:04:30;;;;;;;23.67;10.55;;;4.20;92.10;;;;;;5026184;28;20064;-81
2022/01/15 12:07:05;;;;;;;22.75;9.70;;;4.20;92.00;;;;;;5012623;28;20079;-81
2022/01/15 12:09:38;;;;;;;22.63;10.60;;;4.20;92.00;;;;;;5022959;28;20025;-81
2022/01/15 12:12:33;;;;;;;22.83;10.38;;;4.30;92.00;;;;;;5009187;28;20360;-81
2022/01/15 12:15:00;;;;;;;25.38;11.45;;;4.30;92.10;;;;;;5000793;28;20028;-81
2022/01/15 12:17:30;;;;;;;17.83;9.20;;;4.30;92.00;;;;;;4997921;28;20026;-81
2022/01/15 12:19:58;;;;;;;15.85;8.15;;;4.30;92.00;;;;;;5003074;28;20110;-81
2022/01/15 12:22:39;;;;;;;15.57;6.90;;;4.30;92.00;;;;;;4989118;28;20436;-80
2022/01/15 12:25:05;;;;;;;;;;;4.30;92.00;;;;;;5036256;28;20072;-82
2022/01/15 12:27:31;;;;;;;16.77;8.10;;;4.30;92.00;;;;;;5002441;28;19940;-80
2022/01/15 12:30:18;;;;;;;19.27;9.40;;;4.40;92.00;;;;;;4993943;28;20068;-80
2022/01/15 12:32:45;;;;;;;15.02;7.95;;;4.40;92.00;;;;;;5030022;28;20067;-80
2022/01/15 12:35:16;;;;;;;16.13;8.88;;;4.40;91.90;;;;;;5007171;28;20929;-80
2022/01/15 12:37:59;;;;;;;19.17;10.13;;;4.40;92.00;;;;;;5003898;28;20534;-80
2022/01/15 12:40:29;;;;;;;15.60;7.72;;;4.40;91.90;;;;;;5042995;28;20407;-80
2022/01/15 12:42:58;;;;;;;13.57;7.45;;;4.40;91.90;;;;;;5018157;28;20108;-81
2022/01/15 12:45:25;;;;;;;14.07;6.53;;;4.40;91.90;;;;;;5013744;28;20085;-82
2022/01/15 12:47:51;;;;;;;15.45;6.72;;;4.40;91.90;;;;;;5011344;28;20044;-81
2022/01/15 12:50:16;;;;;;;14.10;7.07;;;4.40;91.90;;;;;;5012171;28;20041;-81
2022/01/15 12:52:42;;;;;;;11.60;6.50;;;4.50;91.90;;;;;;5031492;28;20025;-82
2022/01/15 12:55:08;;;;;;;12.15;6.00;;;4.50;91.90;;;;;;5038112;28;20037;-82
2022/01/15 12:58:00;;;;;;;15.10;9.50;;;4.50;91.90;;;;;;5011112;28;20534;-82
2022/01/15 13:00:28;;;;;;;11.95;6.13;;;4.50;91.80;;;;;;5007957;28;20068;-82
2022/01/15 13:02:57;;;;;;;10.98;6.10;;;4.50;91.80;;;;;;5014640;28;20037;-82
2022/01/15 13:05:29;;;;;;;11.55;5.78;;;4.50;91.80;;;;;;4997022;28;20033;-82
2022/01/15 13:07:56;;;;;;;15.00;6.32;;;4.50;91.80;;;;;;4985365;28;20069;-81
2022/01/15 13:10:34;;;;;;;10.80;5.70;;;4.50;91.70;;;;;;5016805;28;20040;-81
2022/01/15 13:13:00;;;;;;;10.15;5.75;;;4.50;91.70;;;;;;5019951;28;20037;-81